sensor_id;sensor_type;location;lat;lon;timestamp;pressure;altitude;pressure_sealevel;temperature;humidity
12213;BME280;6169;44.158;22.788;2023-09-18T00:01:08;101554.00;;;22.05;60.46
12213;BME280;6169;44.158;22.788;2023-09-18T00:06:10;101552.47;;;21.94;60.76
12213;BME280;6169;44.158;22.788;2023-09-18T00:11:13;101560.13;;;22.02;60.69
12213;BME280;6169;44.158;22.788;2023-09-18T00:16:16;101560.22;;;21.92;61.58
12213;BME280;6169;44.158;22.788;2023-09-18T00:21:18;101550.09;;;21.82;61.99
12213;BME280;6169;44.158;22.788;2023-09-18T00:26:20;101554.16;;;21.66;63.63
12213;BME280;6169;44.158;22.788;2023-09-18T00:31:24;101551.88;;;21.97;61.50
12213;BME280;6169;44.158;22.788;2023-09-18T00:36:26;101557.84;;;22.33;60.04
12213;BME280;6169;44.158;22.788;2023-09-18T00:41:29;101557.91;;;22.04;61.12
12213;BME280;6169;44.158;22.788;2023-09-18T00:46:33;101555.91;;;21.80;62.27
12213;BME280;6169;44.158;22.788;2023-09-18T00:51:37;101551.38;;;21.95;61.99
12213;BME280;6169;44.158;22.788;2023-09-18T00:56:39;101550.28;;;21.67;63.13
12213;BME280;6169;44.158;22.788;2023-09-18T01:01:44;101549.06;;;22.02;61.72
12213;BME280;6169;44.158;22.788;2023-09-18T01:06:47;101551.31;;;21.71;62.73
12213;BME280;6169;44.158;22.788;2023-09-18T01:11:54;101560.88;;;21.54;63.39
12213;BME280;6169;44.158;22.788;2023-09-18T01:17:03;101551.06;;;21.72;62.96
12213;BME280;6169;44.158;22.788;2023-09-18T01:22:09;101553.50;;;21.74;62.47
12213;BME280;6169;44.158;22.788;2023-09-18T01:27:14;101562.22;;;21.86;61.50
12213;BME280;6169;44.158;22.788;2023-09-18T01:32:17;101554.59;;;22.02;61.26
12213;BME280;6169;44.158;22.788;2023-09-18T01:37:21;101562.53;;;21.85;62.20
12213;BME280;6169;44.158;22.788;2023-09-18T01:42:26;101551.66;;;21.93;61.42
12213;BME280;6169;44.158;22.788;2023-09-18T01:47:29;101549.06;;;21.78;62.16
12213;BME280;6169;44.158;22.788;2023-09-18T01:52:31;101552.81;;;21.87;61.31
12213;BME280;6169;44.158;22.788;2023-09-18T01:57:36;101559.03;;;21.74;61.34
12213;BME280;6169;44.158;22.788;2023-09-18T02:02:38;101544.84;;;21.80;60.37
12213;BME280;6169;44.158;22.788;2023-09-18T02:07:41;101545.13;;;22.32;59.51
12213;BME280;6169;44.158;22.788;2023-09-18T02:12:44;101557.31;;;22.07;60.33
12213;BME280;6169;44.158;22.788;2023-09-18T02:17:47;101542.22;;;22.42;58.52
12213;BME280;6169;44.158;22.788;2023-09-18T02:22:49;101540.69;;;22.31;58.98
12213;BME280;6169;44.158;22.788;2023-09-18T02:27:52;101541.66;;;22.45;58.17
12213;BME280;6169;44.158;22.788;2023-09-18T02:32:55;101549.09;;;22.26;58.18
12213;BME280;6169;44.158;22.788;2023-09-18T02:37:58;101546.34;;;22.26;58.77
12213;BME280;6169;44.158;22.788;2023-09-18T02:43:02;101546.34;;;22.26;58.39
12213;BME280;6169;44.158;22.788;2023-09-18T02:48:05;101549.53;;;22.33;58.01
12213;BME280;6169;44.158;22.788;2023-09-18T02:53:11;101551.31;;;22.24;58.48
12213;BME280;6169;44.158;22.788;2023-09-18T02:58:15;101546.44;;;22.16;58.26
12213;BME280;6169;44.158;22.788;2023-09-18T03:03:17;101545.06;;;22.13;58.24
12213;BME280;6169;44.158;22.788;2023-09-18T03:08:19;101553.19;;;22.04;58.52
12213;BME280;6169;44.158;22.788;2023-09-18T03:13:23;101547.41;;;22.01;58.74
12213;BME280;6169;44.158;22.788;2023-09-18T03:18:25;101542.53;;;22.17;58.03
12213;BME280;6169;44.158;22.788;2023-09-18T03:23:27;101537.47;;;22.24;57.77
12213;BME280;6169;44.158;22.788;2023-09-18T03:28:31;101543.22;;;21.79;58.92
12213;BME280;6169;44.158;22.788;2023-09-18T03:33:33;101543.94;;;21.90;59.00
12213;BME280;6169;44.158;22.788;2023-09-18T03:38:36;101541.16;;;21.90;58.21
12213;BME280;6169;44.158;22.788;2023-09-18T03:43:40;101548.06;;;21.64;59.65
12213;BME280;6169;44.158;22.788;2023-09-18T03:48:42;101544.13;;;21.99;57.75
12213;BME280;6169;44.158;22.788;2023-09-18T03:53:44;101554.81;;;21.81;58.51
12213;BME280;6169;44.158;22.788;2023-09-18T03:58:49;101559.63;;;21.71;58.51
12213;BME280;6169;44.158;22.788;2023-09-18T04:03:52;101556.88;;;21.71;59.02
12213;BME280;6169;44.158;22.788;2023-09-18T04:08:55;101572.47;;;21.86;58.26
12213;BME280;6169;44.158;22.788;2023-09-18T04:13:58;101576.34;;;21.90;58.18
12213;BME280;6169;44.158;22.788;2023-09-18T04:19:01;101574.44;;;21.85;58.07
12213;BME280;6169;44.158;22.788;2023-09-18T04:24:03;101579.84;;;20.92;62.06
12213;BME280;6169;44.158;22.788;2023-09-18T04:29:08;101589.09;;;21.17;61.12
12213;BME280;6169;44.158;22.788;2023-09-18T04:34:10;101593.13;;;21.30;60.75
12213;BME280;6169;44.158;22.788;2023-09-18T04:39:13;101597.47;;;21.41;60.43
12213;BME280;6169;44.158;22.788;2023-09-18T04:44:17;101600.22;;;21.80;59.15
12213;BME280;6169;44.158;22.788;2023-09-18T04:49:19;101604.88;;;21.85;58.83
12213;BME280;6169;44.158;22.788;2023-09-18T04:54:21;101612.75;;;21.73;59.53
12213;BME280;6169;44.158;22.788;2023-09-18T04:59:25;101620.56;;;21.95;58.79
12213;BME280;6169;44.158;22.788;2023-09-18T05:04:27;101606.84;;;22.09;57.69
12213;BME280;6169;44.158;22.788;2023-09-18T05:09:29;101606.06;;;22.32;57.58
12213;BME280;6169;44.158;22.788;2023-09-18T05:14:33;101607.75;;;22.04;59.16
12213;BME280;6169;44.158;22.788;2023-09-18T05:19:35;101606.56;;;22.10;58.58
12213;BME280;6169;44.158;22.788;2023-09-18T05:24:37;101605.75;;;22.34;58.12
12213;BME280;6169;44.158;22.788;2023-09-18T05:29:41;101609.72;;;22.27;57.75
12213;BME280;6169;44.158;22.788;2023-09-18T05:34:43;101617.34;;;22.12;58.87
12213;BME280;6169;44.158;22.788;2023-09-18T05:39:45;101609.63;;;22.38;58.29
12213;BME280;6169;44.158;22.788;2023-09-18T05:44:49;101600.59;;;22.51;57.63
12213;BME280;6169;44.158;22.788;2023-09-18T05:49:51;101607.66;;;22.62;57.52
12213;BME280;6169;44.158;22.788;2023-09-18T05:54:53;101622.38;;;22.58;57.60
12213;BME280;6169;44.158;22.788;2023-09-18T05:59:57;101630.16;;;22.56;58.41
12213;BME280;6169;44.158;22.788;2023-09-18T06:05:00;101633.59;;;22.23;58.69
12213;BME280;6169;44.158;22.788;2023-09-18T06:10:04;101630.81;;;22.47;58.01
12213;BME280;6169;44.158;22.788;2023-09-18T06:15:09;101639.25;;;22.37;58.66
12213;BME280;6169;44.158;22.788;2023-09-18T06:20:12;101640.31;;;22.41;57.90
12213;BME280;6169;44.158;22.788;2023-09-18T06:25:16;101641.78;;;22.04;59.52
12213;BME280;6169;44.158;22.788;2023-09-18T06:30:20;101651.03;;;21.95;59.28
12213;BME280;6169;44.158;22.788;2023-09-18T06:35:22;101644.78;;;21.45;61.52
12213;BME280;6169;44.158;22.788;2023-09-18T06:40:24;101644.84;;;22.03;59.73
12213;BME280;6169;44.158;22.788;2023-09-18T06:45:28;101650.38;;;22.03;60.38
12213;BME280;6169;44.158;22.788;2023-09-18T06:50:30;101645.16;;;22.55;58.79
12213;BME280;6169;44.158;22.788;2023-09-18T06:55:32;101652.56;;;22.83;55.69
12213;BME280;6169;44.158;22.788;2023-09-18T07:00:36;101649.66;;;23.12;54.31
12213;BME280;6169;44.158;22.788;2023-09-18T07:05:40;101655.38;;;22.78;55.40
12213;BME280;6169;44.158;22.788;2023-09-18T07:10:42;101650.56;;;22.89;55.26
12213;BME280;6169;44.158;22.788;2023-09-18T07:15:46;101652.75;;;23.49;53.77
12213;BME280;6169;44.158;22.788;2023-09-18T07:20:49;101646.53;;;23.57;53.57
12213;BME280;6169;44.158;22.788;2023-09-18T07:25:51;101650.81;;;23.30;53.96
12213;BME280;6169;44.158;22.788;2023-09-18T07:30:54;101656.69;;;24.13;51.29
12213;BME280;6169;44.158;22.788;2023-09-18T07:35:56;101660.28;;;23.81;51.54
12213;BME280;6169;44.158;22.788;2023-09-18T07:40:58;101659.03;;;23.73;51.24
12213;BME280;6169;44.158;22.788;2023-09-18T07:46:02;101655.34;;;23.78;51.60
12213;BME280;6169;44.158;22.788;2023-09-18T07:51:05;101663.19;;;23.57;52.14
12213;BME280;6169;44.158;22.788;2023-09-18T07:56:07;101664.94;;;24.18;51.54
12213;BME280;6169;44.158;22.788;2023-09-18T08:01:11;101663.91;;;24.42;50.57
12213;BME280;6169;44.158;22.788;2023-09-18T08:06:13;101658.88;;;24.44;50.42
12213;BME280;6169;44.158;22.788;2023-09-18T08:11:19;101658.56;;;24.73;49.40
12213;BME280;6169;44.158;22.788;2023-09-18T08:16:23;101666.28;;;25.40;46.82
12213;BME280;6169;44.158;22.788;2023-09-18T08:21:25;101657.69;;;25.50;47.27
12213;BME280;6169;44.158;22.788;2023-09-18T08:26:29;101650.72;;;25.39;46.52
12213;BME280;6169;44.158;22.788;2023-09-18T08:31:33;101663.25;;;25.14;47.21
12213;BME280;6169;44.158;22.788;2023-09-18T08:36:35;101652.34;;;25.04;46.97
12213;BME280;6169;44.158;22.788;2023-09-18T08:41:40;101650.66;;;25.30;45.48
12213;BME280;6169;44.158;22.788;2023-09-18T08:46:45;101650.84;;;25.34;45.31
12213;BME280;6169;44.158;22.788;2023-09-18T08:51:48;101645.53;;;25.10;47.13
12213;BME280;6169;44.158;22.788;2023-09-18T08:56:51;101635.16;;;25.60;45.35
12213;BME280;6169;44.158;22.788;2023-09-18T09:01:54;101626.09;;;25.32;46.51
12213;BME280;6169;44.158;22.788;2023-09-18T09:06:57;101632.72;;;24.86;46.67
12213;BME280;6169;44.158;22.788;2023-09-18T09:11:59;101629.59;;;25.38;44.77
12213;BME280;6169;44.158;22.788;2023-09-18T09:17:03;101608.47;;;25.59;42.53
12213;BME280;6169;44.158;22.788;2023-09-18T09:22:07;101633.81;;;26.91;40.60
12213;BME280;6169;44.158;22.788;2023-09-18T09:27:10;101630.31;;;26.29;39.58
12213;BME280;6169;44.158;22.788;2023-09-18T09:32:17;101599.41;;;26.47;41.50
12213;BME280;6169;44.158;22.788;2023-09-18T09:37:29;101609.34;;;26.88;40.75
12213;BME280;6169;44.158;22.788;2023-09-18T09:42:38;101625.38;;;26.65;40.00
12213;BME280;6169;44.158;22.788;2023-09-18T09:47:43;101602.75;;;26.84;39.42
12213;BME280;6169;44.158;22.788;2023-09-18T09:52:47;101593.28;;;27.03;38.02
12213;BME280;6169;44.158;22.788;2023-09-18T09:57:52;101591.00;;;27.05;38.14
12213;BME280;6169;44.158;22.788;2023-09-18T10:03:00;101577.34;;;26.86;38.33
12213;BME280;6169;44.158;22.788;2023-09-18T10:08:06;101528.94;;;26.90;38.09
12213;BME280;6169;44.158;22.788;2023-09-18T10:13:14;101552.41;;;27.24;36.84
12213;BME280;6169;44.158;22.788;2023-09-18T10:18:24;101557.09;;;27.67;36.77
12213;BME280;6169;44.158;22.788;2023-09-18T10:23:38;101543.16;;;27.97;36.17
12213;BME280;6169;44.158;22.788;2023-09-18T10:28:43;101536.47;;;26.81;37.05
12213;BME280;6169;44.158;22.788;2023-09-18T10:33:48;101524.81;;;27.87;36.27
12213;BME280;6169;44.158;22.788;2023-09-18T10:38:51;101526.22;;;28.61;35.47
12213;BME280;6169;44.158;22.788;2023-09-18T10:43:56;101472.94;;;28.07;34.63
12213;BME280;6169;44.158;22.788;2023-09-18T10:49:00;101526.53;;;29.02;34.98
12213;BME280;6169;44.158;22.788;2023-09-18T10:54:04;101520.81;;;29.65;32.74
12213;BME280;6169;44.158;22.788;2023-09-18T10:59:07;101514.72;;;29.17;32.82
12213;BME280;6169;44.158;22.788;2023-09-18T11:04:11;101512.63;;;29.59;32.78
12213;BME280;6169;44.158;22.788;2023-09-18T11:09:20;101512.56;;;30.17;32.29
12213;BME280;6169;44.158;22.788;2023-09-18T11:14:23;101508.44;;;30.02;31.68
12213;BME280;6169;44.158;22.788;2023-09-18T11:19:28;101503.31;;;29.92;31.42
12213;BME280;6169;44.158;22.788;2023-09-18T11:24:31;101501.19;;;30.01;31.25
12213;BME280;6169;44.158;22.788;2023-09-18T11:29:36;101500.47;;;30.41;31.84
12213;BME280;6169;44.158;22.788;2023-09-18T11:34:40;101486.25;;;30.34;31.50
12213;BME280;6169;44.158;22.788;2023-09-18T11:39:42;101477.91;;;29.52;31.01
12213;BME280;6169;44.158;22.788;2023-09-18T11:44:47;101478.13;;;30.57;29.82
12213;BME280;6169;44.158;22.788;2023-09-18T11:49:53;101473.00;;;30.47;30.88
12213;BME280;6169;44.158;22.788;2023-09-18T11:54:58;101461.50;;;30.64;29.66
12213;BME280;6169;44.158;22.788;2023-09-18T12:00:01;101459.63;;;30.16;30.62
12213;BME280;6169;44.158;22.788;2023-09-18T12:05:15;101449.72;;;30.59;29.98
12213;BME280;6169;44.158;22.788;2023-09-18T12:10:19;101453.78;;;30.21;29.59
12213;BME280;6169;44.158;22.788;2023-09-18T12:15:22;101452.38;;;30.02;29.59
12213;BME280;6169;44.158;22.788;2023-09-18T12:20:26;101437.56;;;30.55;29.44
12213;BME280;6169;44.158;22.788;2023-09-18T12:25:28;101441.16;;;30.02;28.80
12213;BME280;6169;44.158;22.788;2023-09-18T12:30:33;101437.56;;;29.90;29.96
12213;BME280;6169;44.158;22.788;2023-09-18T12:35:37;101420.63;;;30.51;29.18
12213;BME280;6169;44.158;22.788;2023-09-18T12:40:42;101428.19;;;29.49;29.33
12213;BME280;6169;44.158;22.788;2023-09-18T12:45:47;101418.22;;;30.94;28.34
12213;BME280;6169;44.158;22.788;2023-09-18T12:50:53;101413.56;;;31.13;27.83
12213;BME280;6169;44.158;22.788;2023-09-18T12:56:04;101396.91;;;30.92;28.58
12213;BME280;6169;44.158;22.788;2023-09-18T13:01:08;101393.94;;;30.85;27.59
12213;BME280;6169;44.158;22.788;2023-09-18T13:06:16;101388.09;;;30.62;28.33
12213;BME280;6169;44.158;22.788;2023-09-18T13:11:19;101381.44;;;30.55;28.82
12213;BME280;6169;44.158;22.788;2023-09-18T13:16:22;101379.34;;;30.52;27.01
12213;BME280;6169;44.158;22.788;2023-09-18T13:21:26;101370.66;;;31.01;27.69
12213;BME280;6169;44.158;22.788;2023-09-18T13:26:28;101375.13;;;31.02;27.07
12213;BME280;6169;44.158;22.788;2023-09-18T13:31:30;101372.59;;;30.97;26.94
12213;BME280;6169;44.158;22.788;2023-09-18T13:36:35;101373.94;;;31.03;27.14
12213;BME280;6169;44.158;22.788;2023-09-18T13:41:38;101366.75;;;30.89;26.71
12213;BME280;6169;44.158;22.788;2023-09-18T13:46:41;101366.44;;;31.23;26.89
12213;BME280;6169;44.158;22.788;2023-09-18T13:51:45;101361.53;;;30.88;27.35
12213;BME280;6169;44.158;22.788;2023-09-18T13:56:47;101358.63;;;31.32;26.60
12213;BME280;6169;44.158;22.788;2023-09-18T14:01:49;101362.97;;;30.98;27.12
12213;BME280;6169;44.158;22.788;2023-09-18T14:06:54;101364.41;;;30.91;27.89
12213;BME280;6169;44.158;22.788;2023-09-18T14:11:56;101360.28;;;30.29;27.97
12213;BME280;6169;44.158;22.788;2023-09-18T14:16:58;101360.06;;;30.78;27.51
12213;BME280;6169;44.158;22.788;2023-09-18T14:22:02;101362.84;;;30.78;27.37
12213;BME280;6169;44.158;22.788;2023-09-18T14:27:06;101356.28;;;30.30;27.64
12213;BME280;6169;44.158;22.788;2023-09-18T14:32:08;101342.50;;;30.65;27.79
12213;BME280;6169;44.158;22.788;2023-09-18T14:37:12;101345.63;;;30.64;27.05
12213;BME280;6169;44.158;22.788;2023-09-18T14:42:14;101333.41;;;30.56;26.91
12213;BME280;6169;44.158;22.788;2023-09-18T14:47:16;101331.69;;;30.39;27.42
12213;BME280;6169;44.158;22.788;2023-09-18T14:52:20;101333.06;;;29.89;27.85
12213;BME280;6169;44.158;22.788;2023-09-18T14:57:25;101319.91;;;30.18;27.52
12213;BME280;6169;44.158;22.788;2023-09-18T15:02:28;101330.84;;;29.83;28.24
12213;BME280;6169;44.158;22.788;2023-09-18T15:07:33;101332.56;;;30.12;27.70
12213;BME280;6169;44.158;22.788;2023-09-18T15:12:35;101326.81;;;30.08;27.43
12213;BME280;6169;44.158;22.788;2023-09-18T15:17:37;101325.59;;;30.21;27.18
12213;BME280;6169;44.158;22.788;2023-09-18T15:22:41;101326.66;;;29.76;28.45
12213;BME280;6169;44.158;22.788;2023-09-18T15:27:43;101325.97;;;29.67;28.41
12213;BME280;6169;44.158;22.788;2023-09-18T15:32:46;101324.94;;;29.59;29.39
12213;BME280;6169;44.158;22.788;2023-09-18T15:37:53;101331.47;;;29.64;29.19
12213;BME280;6169;44.158;22.788;2023-09-18T15:42:55;101329.50;;;29.27;30.09
12213;BME280;6169;44.158;22.788;2023-09-18T15:47:58;101316.66;;;29.14;31.29
12213;BME280;6169;44.158;22.788;2023-09-18T15:53:03;101311.59;;;28.49;32.78
12213;BME280;6169;44.158;22.788;2023-09-18T15:58:05;101296.25;;;27.80;34.74
12213;BME280;6169;44.158;22.788;2023-09-18T16:03:08;101286.25;;;27.58;34.90
12213;BME280;6169;44.158;22.788;2023-09-18T16:08:11;101283.47;;;27.20;35.44
12213;BME280;6169;44.158;22.788;2023-09-18T16:13:14;101272.22;;;27.08;34.97
12213;BME280;6169;44.158;22.788;2023-09-18T16:18:16;101282.09;;;27.05;35.42
12213;BME280;6169;44.158;22.788;2023-09-18T16:23:20;101285.59;;;26.93;37.77
12213;BME280;6169;44.158;22.788;2023-09-18T16:28:22;101285.31;;;26.69;37.14
12213;BME280;6169;44.158;22.788;2023-09-18T16:33:25;101279.91;;;26.64;37.93
12213;BME280;6169;44.158;22.788;2023-09-18T16:38:28;101284.75;;;26.37;39.13
12213;BME280;6169;44.158;22.788;2023-09-18T16:43:30;101287.50;;;26.11;38.92
12213;BME280;6169;44.158;22.788;2023-09-18T16:48:51;101299.16;;;25.96;39.52
12213;BME280;6169;44.158;22.788;2023-09-18T16:53:55;101308.41;;;25.48;41.07
12213;BME280;6169;44.158;22.788;2023-09-18T16:58:57;101308.41;;;25.48;42.04
12213;BME280;6169;44.158;22.788;2023-09-18T17:03:59;101308.72;;;25.46;42.80
12213;BME280;6169;44.158;22.788;2023-09-18T17:09:04;101310.16;;;24.95;41.77
12213;BME280;6169;44.158;22.788;2023-09-18T17:14:06;101304.59;;;24.41;42.93
12213;BME280;6169;44.158;22.788;2023-09-18T17:19:09;101301.97;;;24.90;42.45
12213;BME280;6169;44.158;22.788;2023-09-18T17:24:14;101305.41;;;24.96;42.37
12213;BME280;6169;44.158;22.788;2023-09-18T17:29:17;101311.38;;;24.71;42.48
12213;BME280;6169;44.158;22.788;2023-09-18T17:34:19;101305.63;;;24.45;42.54
12213;BME280;6169;44.158;22.788;2023-09-18T17:39:23;101319.53;;;24.45;43.58
12213;BME280;6169;44.158;22.788;2023-09-18T17:44:25;101313.06;;;24.14;44.20
12213;BME280;6169;44.158;22.788;2023-09-18T17:49:27;101316.53;;;24.19;43.43
12213;BME280;6169;44.158;22.788;2023-09-18T17:54:31;101323.94;;;24.24;42.72
12213;BME280;6169;44.158;22.788;2023-09-18T17:59:33;101333.09;;;24.69;41.21
12213;BME280;6169;44.158;22.788;2023-09-18T18:04:35;101331.56;;;24.18;41.06
12213;BME280;6169;44.158;22.788;2023-09-18T18:09:39;101319.31;;;24.19;41.62
12213;BME280;6169;44.158;22.788;2023-09-18T18:14:41;101327.91;;;23.95;42.54
12213;BME280;6169;44.158;22.788;2023-09-18T18:19:43;101319.09;;;23.79;43.93
12213;BME280;6169;44.158;22.788;2023-09-18T18:24:47;101325.38;;;23.71;44.24
12213;BME280;6169;44.158;22.788;2023-09-18T18:29:51;101320.28;;;23.65;44.52
12213;BME280;6169;44.158;22.788;2023-09-18T18:34:53;101330.69;;;23.95;44.42
12213;BME280;6169;44.158;22.788;2023-09-18T18:39:57;101335.06;;;23.60;43.29
12213;BME280;6169;44.158;22.788;2023-09-18T18:44:59;101335.56;;;23.21;43.68
12213;BME280;6169;44.158;22.788;2023-09-18T18:50:02;101332.72;;;23.53;42.63
12213;BME280;6169;44.158;22.788;2023-09-18T18:55:06;101345.25;;;23.65;43.21
12213;BME280;6169;44.158;22.788;2023-09-18T19:00:10;101341.13;;;23.34;43.51
12213;BME280;6169;44.158;22.788;2023-09-18T19:05:13;101349.38;;;23.67;42.07
12213;BME280;6169;44.158;22.788;2023-09-18T19:10:17;101364.03;;;23.40;42.20
12213;BME280;6169;44.158;22.788;2023-09-18T19:15:19;101363.06;;;23.50;42.82
12213;BME280;6169;44.158;22.788;2023-09-18T19:20:24;101368.78;;;23.67;41.93
12213;BME280;6169;44.158;22.788;2023-09-18T19:25:29;101364.34;;;23.80;42.98
12213;BME280;6169;44.158;22.788;2023-09-18T19:30:32;101362.72;;;23.79;43.00
12213;BME280;6169;44.158;22.788;2023-09-18T19:35:34;101359.84;;;23.70;43.37
12213;BME280;6169;44.158;22.788;2023-09-18T19:40:41;101362.16;;;23.91;43.36
12213;BME280;6169;44.158;22.788;2023-09-18T19:45:44;101352.19;;;23.90;43.16
12213;BME280;6169;44.158;22.788;2023-09-18T19:50:46;101356.38;;;24.01;42.90
12213;BME280;6169;44.158;22.788;2023-09-18T19:55:51;101355.00;;;23.76;43.73
12213;BME280;6169;44.158;22.788;2023-09-18T20:00:53;101361.06;;;23.36;45.23
12213;BME280;6169;44.158;22.788;2023-09-18T20:05:56;101359.16;;;22.58;47.51
12213;BME280;6169;44.158;22.788;2023-09-18T20:10:59;101358.25;;;22.76;46.87
12213;BME280;6169;44.158;22.788;2023-09-18T20:16:03;101358.47;;;22.66;47.60
12213;BME280;6169;44.158;22.788;2023-09-18T20:21:07;101366.31;;;22.59;47.60
12213;BME280;6169;44.158;22.788;2023-09-18T20:26:13;101363.69;;;22.35;49.01
12213;BME280;6169;44.158;22.788;2023-09-18T20:31:15;101355.09;;;22.50;48.13
12213;BME280;6169;44.158;22.788;2023-09-18T20:36:18;101369.56;;;21.90;49.75
12213;BME280;6169;44.158;22.788;2023-09-18T20:41:23;101368.63;;;21.28;52.76
12213;BME280;6169;44.158;22.788;2023-09-18T20:46:26;101387.44;;;21.02;53.18
12213;BME280;6169;44.158;22.788;2023-09-18T20:51:28;101383.00;;;21.54;51.24
12213;BME280;6169;44.158;22.788;2023-09-18T20:56:32;101378.63;;;21.24;53.36
12213;BME280;6169;44.158;22.788;2023-09-18T21:01:35;101370.81;;;21.79;51.52
12213;BME280;6169;44.158;22.788;2023-09-18T21:06:37;101363.88;;;22.00;50.80
12213;BME280;6169;44.158;22.788;2023-09-18T21:11:40;101354.56;;;22.34;49.77
12213;BME280;6169;44.158;22.788;2023-09-18T21:16:44;101352.25;;;22.55;49.29
12213;BME280;6169;44.158;22.788;2023-09-18T21:21:47;101366.59;;;22.24;50.01
12213;BME280;6169;44.158;22.788;2023-09-18T21:26:50;101357.91;;;22.31;49.64
12213;BME280;6169;44.158;22.788;2023-09-18T21:31:52;101360.44;;;22.27;49.61
12213;BME280;6169;44.158;22.788;2023-09-18T21:36:54;101367.94;;;22.46;49.01
12213;BME280;6169;44.158;22.788;2023-09-18T21:41:58;101362.53;;;22.55;48.90
12213;BME280;6169;44.158;22.788;2023-09-18T21:47:00;101354.16;;;22.22;49.72
12213;BME280;6169;44.158;22.788;2023-09-18T21:52:07;101358.34;;;22.38;49.11
12213;BME280;6169;44.158;22.788;2023-09-18T21:57:11;101351.66;;;21.82;50.47
12213;BME280;6169;44.158;22.788;2023-09-18T22:02:14;101364.63;;;22.25;49.06
12213;BME280;6169;44.158;22.788;2023-09-18T22:07:16;101357.38;;;22.10;49.41
12213;BME280;6169;44.158;22.788;2023-09-18T22:12:20;101358.56;;;22.04;48.97
12213;BME280;6169;44.158;22.788;2023-09-18T22:17:22;101373.25;;;21.32;50.60
12213;BME280;6169;44.158;22.788;2023-09-18T22:22:24;101380.03;;;20.92;51.95
12213;BME280;6169;44.158;22.788;2023-09-18T22:27:30;101372.78;;;21.49;51.22
12213;BME280;6169;44.158;22.788;2023-09-18T22:32:32;101364.13;;;21.80;49.87
12213;BME280;6169;44.158;22.788;2023-09-18T22:37:36;101374.09;;;21.81;49.75
12213;BME280;6169;44.158;22.788;2023-09-18T22:59:00;101371.97;;;21.49;50.74
12213;BME280;6169;44.158;22.788;2023-09-18T23:04:04;101371.84;;;21.83;49.79
12213;BME280;6169;44.158;22.788;2023-09-18T23:09:06;101367.41;;;22.06;49.20
12213;BME280;6169;44.158;22.788;2023-09-18T23:14:09;101370.31;;;22.15;48.78
12213;BME280;6169;44.158;22.788;2023-09-18T23:19:11;101372.41;;;22.04;48.73
12213;BME280;6169;44.158;22.788;2023-09-18T23:24:14;101386.53;;;21.06;50.84
12213;BME280;6169;44.158;22.788;2023-09-18T23:29:17;101392.31;;;20.76;53.11
12213;BME280;6169;44.158;22.788;2023-09-18T23:34:21;101375.19;;;21.61;50.60
12213;BME280;6169;44.158;22.788;2023-09-18T23:39:23;101369.34;;;21.63;50.08
12213;BME280;6169;44.158;22.788;2023-09-18T23:44:27;101378.41;;;21.44;50.03
12213;BME280;6169;44.158;22.788;2023-09-18T23:49:32;101358.59;;;21.61;50.15
12213;BME280;6169;44.158;22.788;2023-09-18T23:54:36;101340.91;;;21.57;50.48
12213;BME280;6169;44.158;22.788;2023-09-18T23:59:41;101340.25;;;21.41;50.61
